sensor_id;sensor_type;location;lat;lon;timestamp;P1;durP1;ratioP1;P2;durP2;ratioP2
8349;SDS011;60699;48.946;8.412;2023-07-08T00:00:11;6.63;;;4.63;;
8349;SDS011;60699;48.946;8.412;2023-07-08T00:02:39;7.40;;;4.90;;
8349;SDS011;60699;48.946;8.412;2023-07-08T00:05:07;5.80;;;3.97;;
8349;SDS011;60699;48.946;8.412;2023-07-08T00:07:34;7.00;;;5.07;;
8349;SDS011;60699;48.946;8.412;2023-07-08T00:10:04;6.37;;;4.77;;
8349;SDS011;60699;48.946;8.412;2023-07-08T00:12:35;7.47;;;4.60;;
8349;SDS011;60699;48.946;8.412;2023-07-08T00:15:02;6.10;;;4.20;;
8349;SDS011;60699;48.946;8.412;2023-07-08T00:17:30;7.60;;;4.37;;
8349;SDS011;60699;48.946;8.412;2023-07-08T00:19:57;7.90;;;4.90;;
8349;SDS011;60699;48.946;8.412;2023-07-08T00:22:24;6.53;;;4.40;;
8349;SDS011;60699;48.946;8.412;2023-07-08T00:24:51;5.87;;;4.50;;
8349;SDS011;60699;48.946;8.412;2023-07-08T00:27:19;7.10;;;5.50;;
8349;SDS011;60699;48.946;8.412;2023-07-08T00:29:46;6.73;;;5.60;;
8349;SDS011;60699;48.946;8.412;2023-07-08T00:32:14;6.80;;;4.73;;
8349;SDS011;60699;48.946;8.412;2023-07-08T00:34:41;7.13;;;5.13;;
8349;SDS011;60699;48.946;8.412;2023-07-08T00:37:09;6.50;;;4.70;;
8349;SDS011;60699;48.946;8.412;2023-07-08T00:39:37;6.73;;;4.60;;
8349;SDS011;60699;48.946;8.412;2023-07-08T00:42:06;8.50;;;5.13;;
8349;SDS011;60699;48.946;8.412;2023-07-08T00:44:39;5.67;;;5.13;;
8349;SDS011;60699;48.946;8.412;2023-07-08T00:47:08;8.97;;;4.67;;
8349;SDS011;60699;48.946;8.412;2023-07-08T00:49:37;7.47;;;5.37;;
8349;SDS011;60699;48.946;8.412;2023-07-08T00:52:22;7.67;;;5.20;;
8349;SDS011;60699;48.946;8.412;2023-07-08T00:54:50;5.50;;;4.70;;
8349;SDS011;60699;48.946;8.412;2023-07-08T00:57:17;6.47;;;4.90;;
8349;SDS011;60699;48.946;8.412;2023-07-08T00:59:47;7.30;;;4.80;;
8349;SDS011;60699;48.946;8.412;2023-07-08T01:02:15;7.40;;;6.20;;
8349;SDS011;60699;48.946;8.412;2023-07-08T01:04:47;10.87;;;5.43;;
8349;SDS011;60699;48.946;8.412;2023-07-08T01:07:15;8.80;;;4.47;;
8349;SDS011;60699;48.946;8.412;2023-07-08T01:09:46;7.43;;;5.47;;
8349;SDS011;60699;48.946;8.412;2023-07-08T01:12:16;9.03;;;5.23;;
8349;SDS011;60699;48.946;8.412;2023-07-08T01:14:45;6.63;;;4.87;;
8349;SDS011;60699;48.946;8.412;2023-07-08T01:17:13;11.60;;;5.63;;
8349;SDS011;60699;48.946;8.412;2023-07-08T01:19:41;8.60;;;5.10;;
8349;SDS011;60699;48.946;8.412;2023-07-08T01:22:09;6.60;;;4.33;;
8349;SDS011;60699;48.946;8.412;2023-07-08T01:24:38;7.60;;;5.13;;
8349;SDS011;60699;48.946;8.412;2023-07-08T01:27:06;6.60;;;5.40;;
8349;SDS011;60699;48.946;8.412;2023-07-08T01:29:33;5.53;;;4.93;;
8349;SDS011;60699;48.946;8.412;2023-07-08T01:32:00;7.10;;;5.10;;
8349;SDS011;60699;48.946;8.412;2023-07-08T01:34:28;7.83;;;5.70;;
8349;SDS011;60699;48.946;8.412;2023-07-08T01:36:55;8.07;;;5.80;;
8349;SDS011;60699;48.946;8.412;2023-07-08T01:39:26;6.53;;;4.50;;
8349;SDS011;60699;48.946;8.412;2023-07-08T01:41:55;8.53;;;4.90;;
8349;SDS011;60699;48.946;8.412;2023-07-08T01:44:23;7.90;;;5.13;;
8349;SDS011;60699;48.946;8.412;2023-07-08T01:46:51;5.33;;;4.07;;
8349;SDS011;60699;48.946;8.412;2023-07-08T01:49:19;7.87;;;4.37;;
8349;SDS011;60699;48.946;8.412;2023-07-08T01:51:47;7.40;;;4.87;;
8349;SDS011;60699;48.946;8.412;2023-07-08T01:54:15;6.10;;;4.63;;
8349;SDS011;60699;48.946;8.412;2023-07-08T01:56:43;4.90;;;3.93;;
8349;SDS011;60699;48.946;8.412;2023-07-08T01:59:10;7.83;;;4.80;;
8349;SDS011;60699;48.946;8.412;2023-07-08T02:01:37;5.77;;;5.10;;
8349;SDS011;60699;48.946;8.412;2023-07-08T02:04:04;5.70;;;4.63;;
8349;SDS011;60699;48.946;8.412;2023-07-08T02:06:31;10.00;;;4.90;;
8349;SDS011;60699;48.946;8.412;2023-07-08T02:08:58;5.70;;;4.50;;
8349;SDS011;60699;48.946;8.412;2023-07-08T02:11:25;9.03;;;4.83;;
8349;SDS011;60699;48.946;8.412;2023-07-08T02:13:53;7.53;;;5.03;;
8349;SDS011;60699;48.946;8.412;2023-07-08T02:16:20;7.47;;;5.10;;
8349;SDS011;60699;48.946;8.412;2023-07-08T02:18:47;5.47;;;4.07;;
8349;SDS011;60699;48.946;8.412;2023-07-08T02:21:14;8.80;;;5.13;;
8349;SDS011;60699;48.946;8.412;2023-07-08T02:23:42;8.30;;;5.20;;
8349;SDS011;60699;48.946;8.412;2023-07-08T02:26:10;5.63;;;4.00;;
8349;SDS011;60699;48.946;8.412;2023-07-08T02:28:36;7.93;;;5.20;;
8349;SDS011;60699;48.946;8.412;2023-07-08T02:31:05;8.70;;;5.30;;
8349;SDS011;60699;48.946;8.412;2023-07-08T02:33:32;6.57;;;4.80;;
8349;SDS011;60699;48.946;8.412;2023-07-08T02:35:59;4.90;;;4.00;;
8349;SDS011;60699;48.946;8.412;2023-07-08T02:38:26;5.47;;;4.40;;
8349;SDS011;60699;48.946;8.412;2023-07-08T02:40:53;7.57;;;5.20;;
8349;SDS011;60699;48.946;8.412;2023-07-08T02:43:20;7.93;;;5.03;;
8349;SDS011;60699;48.946;8.412;2023-07-08T02:45:48;6.53;;;4.67;;
8349;SDS011;60699;48.946;8.412;2023-07-08T02:48:17;8.13;;;4.67;;
8349;SDS011;60699;48.946;8.412;2023-07-08T02:50:44;8.40;;;5.27;;
8349;SDS011;60699;48.946;8.412;2023-07-08T02:53:11;7.23;;;4.53;;
8349;SDS011;60699;48.946;8.412;2023-07-08T02:55:38;9.17;;;5.93;;
8349;SDS011;60699;48.946;8.412;2023-07-08T02:58:07;7.13;;;5.47;;
8349;SDS011;60699;48.946;8.412;2023-07-08T03:00:34;7.20;;;4.93;;
8349;SDS011;60699;48.946;8.412;2023-07-08T03:03:02;10.43;;;6.20;;
8349;SDS011;60699;48.946;8.412;2023-07-08T03:05:31;8.57;;;5.33;;
8349;SDS011;60699;48.946;8.412;2023-07-08T03:07:58;9.10;;;4.50;;
8349;SDS011;60699;48.946;8.412;2023-07-08T03:10:25;6.90;;;4.70;;
8349;SDS011;60699;48.946;8.412;2023-07-08T03:12:52;6.00;;;5.10;;
8349;SDS011;60699;48.946;8.412;2023-07-08T03:15:19;7.90;;;5.03;;
8349;SDS011;60699;48.946;8.412;2023-07-08T03:17:46;7.03;;;5.57;;
8349;SDS011;60699;48.946;8.412;2023-07-08T03:20:13;7.13;;;4.97;;
8349;SDS011;60699;48.946;8.412;2023-07-08T03:22:41;5.87;;;4.50;;
8349;SDS011;60699;48.946;8.412;2023-07-08T03:25:08;8.00;;;4.57;;
8349;SDS011;60699;48.946;8.412;2023-07-08T03:27:35;7.67;;;5.07;;
8349;SDS011;60699;48.946;8.412;2023-07-08T03:30:02;8.60;;;5.40;;
8349;SDS011;60699;48.946;8.412;2023-07-08T03:32:30;8.63;;;5.20;;
8349;SDS011;60699;48.946;8.412;2023-07-08T03:34:57;8.63;;;6.13;;
8349;SDS011;60699;48.946;8.412;2023-07-08T03:37:26;5.00;;;4.50;;
8349;SDS011;60699;48.946;8.412;2023-07-08T03:39:54;5.33;;;4.67;;
8349;SDS011;60699;48.946;8.412;2023-07-08T03:42:21;7.67;;;5.23;;
8349;SDS011;60699;48.946;8.412;2023-07-08T03:44:48;7.97;;;4.90;;
8349;SDS011;60699;48.946;8.412;2023-07-08T03:47:15;7.97;;;4.57;;
8349;SDS011;60699;48.946;8.412;2023-07-08T03:49:42;6.40;;;5.03;;
8349;SDS011;60699;48.946;8.412;2023-07-08T03:52:10;5.50;;;4.67;;
8349;SDS011;60699;48.946;8.412;2023-07-08T03:54:40;8.60;;;4.77;;
8349;SDS011;60699;48.946;8.412;2023-07-08T03:57:09;8.23;;;4.60;;
8349;SDS011;60699;48.946;8.412;2023-07-08T03:59:36;6.17;;;4.57;;
8349;SDS011;60699;48.946;8.412;2023-07-08T04:02:03;7.73;;;4.70;;
8349;SDS011;60699;48.946;8.412;2023-07-08T04:04:30;6.83;;;4.57;;
8349;SDS011;60699;48.946;8.412;2023-07-08T04:06:57;6.33;;;5.50;;
8349;SDS011;60699;48.946;8.412;2023-07-08T04:09:24;7.63;;;5.03;;
8349;SDS011;60699;48.946;8.412;2023-07-08T04:11:51;6.37;;;4.43;;
8349;SDS011;60699;48.946;8.412;2023-07-08T04:14:20;5.80;;;4.60;;
8349;SDS011;60699;48.946;8.412;2023-07-08T04:16:48;6.50;;;4.37;;
8349;SDS011;60699;48.946;8.412;2023-07-08T04:19:16;6.80;;;5.07;;
8349;SDS011;60699;48.946;8.412;2023-07-08T04:21:43;6.97;;;4.20;;
8349;SDS011;60699;48.946;8.412;2023-07-08T04:24:11;8.40;;;4.90;;
8349;SDS011;60699;48.946;8.412;2023-07-08T04:26:39;9.80;;;5.43;;
8349;SDS011;60699;48.946;8.412;2023-07-08T04:29:08;7.20;;;5.53;;
8349;SDS011;60699;48.946;8.412;2023-07-08T04:31:37;7.20;;;4.70;;
8349;SDS011;60699;48.946;8.412;2023-07-08T04:34:04;9.57;;;5.63;;
8349;SDS011;60699;48.946;8.412;2023-07-08T04:36:31;6.50;;;4.30;;
8349;SDS011;60699;48.946;8.412;2023-07-08T04:38:59;7.87;;;4.43;;
8349;SDS011;60699;48.946;8.412;2023-07-08T04:41:26;9.90;;;5.27;;
8349;SDS011;60699;48.946;8.412;2023-07-08T04:43:53;5.50;;;4.83;;
8349;SDS011;60699;48.946;8.412;2023-07-08T04:46:23;7.93;;;5.60;;
8349;SDS011;60699;48.946;8.412;2023-07-08T04:48:53;9.00;;;6.90;;
8349;SDS011;60699;48.946;8.412;2023-07-08T04:51:20;9.10;;;5.50;;
8349;SDS011;60699;48.946;8.412;2023-07-08T04:53:49;7.00;;;4.77;;
8349;SDS011;60699;48.946;8.412;2023-07-08T04:56:16;6.60;;;5.37;;
8349;SDS011;60699;48.946;8.412;2023-07-08T04:58:44;8.80;;;5.17;;
8349;SDS011;60699;48.946;8.412;2023-07-08T05:01:11;7.83;;;5.07;;
8349;SDS011;60699;48.946;8.412;2023-07-08T05:03:38;9.00;;;6.10;;
8349;SDS011;60699;48.946;8.412;2023-07-08T05:06:06;13.13;;;6.23;;
8349;SDS011;60699;48.946;8.412;2023-07-08T05:08:33;7.37;;;4.80;;
8349;SDS011;60699;48.946;8.412;2023-07-08T05:11:00;10.33;;;6.13;;
8349;SDS011;60699;48.946;8.412;2023-07-08T05:13:27;8.27;;;4.87;;
8349;SDS011;60699;48.946;8.412;2023-07-08T05:15:54;7.23;;;5.50;;
8349;SDS011;60699;48.946;8.412;2023-07-08T05:18:21;8.80;;;5.67;;
8349;SDS011;60699;48.946;8.412;2023-07-08T05:20:50;7.73;;;5.27;;
8349;SDS011;60699;48.946;8.412;2023-07-08T05:23:18;6.67;;;5.33;;
8349;SDS011;60699;48.946;8.412;2023-07-08T05:25:45;9.43;;;6.50;;
8349;SDS011;60699;48.946;8.412;2023-07-08T05:28:12;9.23;;;5.70;;
8349;SDS011;60699;48.946;8.412;2023-07-08T05:30:39;8.70;;;5.80;;
8349;SDS011;60699;48.946;8.412;2023-07-08T05:33:07;7.77;;;5.80;;
8349;SDS011;60699;48.946;8.412;2023-07-08T05:35:34;9.50;;;6.57;;
8349;SDS011;60699;48.946;8.412;2023-07-08T05:38:01;8.37;;;6.03;;
8349;SDS011;60699;48.946;8.412;2023-07-08T05:40:29;9.03;;;5.87;;
8349;SDS011;60699;48.946;8.412;2023-07-08T05:42:56;7.67;;;5.33;;
8349;SDS011;60699;48.946;8.412;2023-07-08T05:45:23;10.40;;;5.97;;
8349;SDS011;60699;48.946;8.412;2023-07-08T05:47:50;8.73;;;6.53;;
8349;SDS011;60699;48.946;8.412;2023-07-08T05:50:17;11.40;;;6.33;;
8349;SDS011;60699;48.946;8.412;2023-07-08T05:52:44;9.60;;;5.73;;
8349;SDS011;60699;48.946;8.412;2023-07-08T05:55:11;8.97;;;6.03;;
8349;SDS011;60699;48.946;8.412;2023-07-08T05:57:39;10.73;;;7.40;;
8349;SDS011;60699;48.946;8.412;2023-07-08T06:00:08;10.07;;;5.60;;
8349;SDS011;60699;48.946;8.412;2023-07-08T06:02:36;9.47;;;5.80;;
8349;SDS011;60699;48.946;8.412;2023-07-08T06:05:03;9.40;;;6.67;;
8349;SDS011;60699;48.946;8.412;2023-07-08T06:07:30;9.40;;;5.83;;
8349;SDS011;60699;48.946;8.412;2023-07-08T06:09:58;8.47;;;6.00;;
8349;SDS011;60699;48.946;8.412;2023-07-08T06:12:25;9.60;;;6.20;;
8349;SDS011;60699;48.946;8.412;2023-07-08T06:14:53;8.40;;;5.40;;
8349;SDS011;60699;48.946;8.412;2023-07-08T06:17:20;6.43;;;4.97;;
8349;SDS011;60699;48.946;8.412;2023-07-08T06:19:47;8.87;;;5.90;;
8349;SDS011;60699;48.946;8.412;2023-07-08T06:22:14;8.83;;;5.60;;
8349;SDS011;60699;48.946;8.412;2023-07-08T06:24:42;7.67;;;6.43;;
8349;SDS011;60699;48.946;8.412;2023-07-08T06:27:09;10.73;;;7.97;;
8349;SDS011;60699;48.946;8.412;2023-07-08T06:29:36;10.70;;;6.20;;
8349;SDS011;60699;48.946;8.412;2023-07-08T06:32:05;7.97;;;6.07;;
8349;SDS011;60699;48.946;8.412;2023-07-08T06:34:33;8.23;;;5.30;;
8349;SDS011;60699;48.946;8.412;2023-07-08T06:37:00;9.23;;;5.57;;
8349;SDS011;60699;48.946;8.412;2023-07-08T06:39:27;11.97;;;6.03;;
8349;SDS011;60699;48.946;8.412;2023-07-08T06:41:54;5.03;;;4.53;;
8349;SDS011;60699;48.946;8.412;2023-07-08T06:44:21;7.37;;;5.10;;
8349;SDS011;60699;48.946;8.412;2023-07-08T06:46:48;6.97;;;4.70;;
8349;SDS011;60699;48.946;8.412;2023-07-08T06:49:16;4.53;;;4.03;;
8349;SDS011;60699;48.946;8.412;2023-07-08T06:51:43;5.43;;;4.20;;
8349;SDS011;60699;48.946;8.412;2023-07-08T06:54:10;4.03;;;3.30;;
8349;SDS011;60699;48.946;8.412;2023-07-08T06:56:37;5.50;;;3.57;;
8349;SDS011;60699;48.946;8.412;2023-07-08T06:59:04;5.23;;;4.30;;
8349;SDS011;60699;48.946;8.412;2023-07-08T07:01:32;4.20;;;3.80;;
8349;SDS011;60699;48.946;8.412;2023-07-08T07:03:59;4.00;;;3.57;;
8349;SDS011;60699;48.946;8.412;2023-07-08T07:06:27;5.67;;;3.83;;
8349;SDS011;60699;48.946;8.412;2023-07-08T07:08:54;6.03;;;5.53;;
8349;SDS011;60699;48.946;8.412;2023-07-08T07:11:21;3.67;;;3.37;;
8349;SDS011;60699;48.946;8.412;2023-07-08T07:13:48;4.70;;;3.67;;
8349;SDS011;60699;48.946;8.412;2023-07-08T07:16:15;5.37;;;3.40;;
8349;SDS011;60699;48.946;8.412;2023-07-08T07:18:42;5.30;;;3.60;;
8349;SDS011;60699;48.946;8.412;2023-07-08T07:21:10;6.27;;;3.63;;
8349;SDS011;60699;48.946;8.412;2023-07-08T07:23:38;5.20;;;3.40;;
8349;SDS011;60699;48.946;8.412;2023-07-08T07:26:05;4.77;;;3.50;;
8349;SDS011;60699;48.946;8.412;2023-07-08T07:28:33;5.73;;;4.30;;
8349;SDS011;60699;48.946;8.412;2023-07-08T07:31:00;3.77;;;2.83;;
8349;SDS011;60699;48.946;8.412;2023-07-08T07:33:27;4.20;;;3.50;;
8349;SDS011;60699;48.946;8.412;2023-07-08T07:35:54;4.93;;;3.60;;
8349;SDS011;60699;48.946;8.412;2023-07-08T07:38:21;3.73;;;3.33;;
8349;SDS011;60699;48.946;8.412;2023-07-08T07:40:51;3.73;;;3.20;;
8349;SDS011;60699;48.946;8.412;2023-07-08T07:43:19;5.83;;;3.37;;
8349;SDS011;60699;48.946;8.412;2023-07-08T07:45:48;5.43;;;3.47;;
8349;SDS011;60699;48.946;8.412;2023-07-08T07:48:15;7.27;;;3.20;;
8349;SDS011;60699;48.946;8.412;2023-07-08T07:50:44;5.97;;;3.47;;
8349;SDS011;60699;48.946;8.412;2023-07-08T07:53:11;3.73;;;3.33;;
8349;SDS011;60699;48.946;8.412;2023-07-08T07:55:38;4.83;;;3.07;;
8349;SDS011;60699;48.946;8.412;2023-07-08T07:58:06;3.90;;;2.50;;
8349;SDS011;60699;48.946;8.412;2023-07-08T08:00:36;3.77;;;3.30;;
8349;SDS011;60699;48.946;8.412;2023-07-08T08:03:03;5.43;;;3.37;;
8349;SDS011;60699;48.946;8.412;2023-07-08T08:05:30;4.30;;;2.90;;
8349;SDS011;60699;48.946;8.412;2023-07-08T08:07:57;2.93;;;2.40;;
8349;SDS011;60699;48.946;8.412;2023-07-08T08:10:24;6.73;;;3.53;;
8349;SDS011;60699;48.946;8.412;2023-07-08T08:12:51;5.60;;;3.50;;
8349;SDS011;60699;48.946;8.412;2023-07-08T08:15:20;3.77;;;3.30;;
8349;SDS011;60699;48.946;8.412;2023-07-08T08:17:47;3.10;;;2.80;;
8349;SDS011;60699;48.946;8.412;2023-07-08T08:20:16;3.53;;;3.23;;
8349;SDS011;60699;48.946;8.412;2023-07-08T08:22:44;5.07;;;3.00;;
8349;SDS011;60699;48.946;8.412;2023-07-08T08:25:11;6.00;;;2.63;;
8349;SDS011;60699;48.946;8.412;2023-07-08T08:27:38;3.33;;;3.03;;
8349;SDS011;60699;48.946;8.412;2023-07-08T08:30:05;3.43;;;2.40;;
8349;SDS011;60699;48.946;8.412;2023-07-08T08:32:34;3.90;;;2.90;;
8349;SDS011;60699;48.946;8.412;2023-07-08T08:35:01;4.80;;;2.90;;
8349;SDS011;60699;48.946;8.412;2023-07-08T08:37:28;3.80;;;2.50;;
8349;SDS011;60699;48.946;8.412;2023-07-08T08:39:55;2.20;;;2.00;;
8349;SDS011;60699;48.946;8.412;2023-07-08T08:42:24;3.03;;;2.10;;
8349;SDS011;60699;48.946;8.412;2023-07-08T08:44:52;2.83;;;2.17;;
8349;SDS011;60699;48.946;8.412;2023-07-08T08:47:24;2.03;;;1.67;;
8349;SDS011;60699;48.946;8.412;2023-07-08T08:49:56;2.50;;;2.10;;
8349;SDS011;60699;48.946;8.412;2023-07-08T08:52:23;2.83;;;2.30;;
8349;SDS011;60699;48.946;8.412;2023-07-08T08:54:50;2.83;;;2.00;;
8349;SDS011;60699;48.946;8.412;2023-07-08T08:57:20;2.27;;;2.00;;
8349;SDS011;60699;48.946;8.412;2023-07-08T08:59:52;3.10;;;2.23;;
8349;SDS011;60699;48.946;8.412;2023-07-08T09:02:23;3.60;;;2.43;;
8349;SDS011;60699;48.946;8.412;2023-07-08T09:04:52;3.23;;;2.33;;
8349;SDS011;60699;48.946;8.412;2023-07-08T09:07:20;3.80;;;2.07;;
8349;SDS011;60699;48.946;8.412;2023-07-08T09:09:50;2.60;;;1.77;;
8349;SDS011;60699;48.946;8.412;2023-07-08T09:12:20;3.77;;;2.40;;
8349;SDS011;60699;48.946;8.412;2023-07-08T09:14:48;2.53;;;1.87;;
8349;SDS011;60699;48.946;8.412;2023-07-08T09:17:17;2.03;;;1.93;;
8349;SDS011;60699;48.946;8.412;2023-07-08T09:19:47;2.23;;;1.47;;
8349;SDS011;60699;48.946;8.412;2023-07-08T09:22:16;2.40;;;1.80;;
8349;SDS011;60699;48.946;8.412;2023-07-08T09:24:46;4.03;;;3.60;;
8349;SDS011;60699;48.946;8.412;2023-07-08T09:27:15;2.10;;;1.90;;
8349;SDS011;60699;48.946;8.412;2023-07-08T09:29:42;2.30;;;1.63;;
8349;SDS011;60699;48.946;8.412;2023-07-08T09:32:16;1.40;;;1.30;;
8349;SDS011;60699;48.946;8.412;2023-07-08T09:34:44;3.33;;;1.60;;
8349;SDS011;60699;48.946;8.412;2023-07-08T09:37:22;2.43;;;1.83;;
8349;SDS011;60699;48.946;8.412;2023-07-08T09:39:52;1.57;;;1.47;;
8349;SDS011;60699;48.946;8.412;2023-07-08T09:42:19;2.10;;;1.80;;
8349;SDS011;60699;48.946;8.412;2023-07-08T09:44:47;1.93;;;1.40;;
8349;SDS011;60699;48.946;8.412;2023-07-08T09:47:22;2.20;;;2.00;;
8349;SDS011;60699;48.946;8.412;2023-07-08T09:49:49;2.10;;;1.90;;
8349;SDS011;60699;48.946;8.412;2023-07-08T09:52:18;3.43;;;2.13;;
8349;SDS011;60699;48.946;8.412;2023-07-08T09:54:45;1.47;;;1.37;;
8349;SDS011;60699;48.946;8.412;2023-07-08T09:57:17;1.70;;;1.60;;
8349;SDS011;60699;48.946;8.412;2023-07-08T09:59:47;2.30;;;1.83;;
8349;SDS011;60699;48.946;8.412;2023-07-08T10:02:25;2.73;;;1.60;;
8349;SDS011;60699;48.946;8.412;2023-07-08T10:04:53;2.10;;;1.80;;
8349;SDS011;60699;48.946;8.412;2023-07-08T10:07:22;2.10;;;1.97;;
8349;SDS011;60699;48.946;8.412;2023-07-08T10:09:49;3.03;;;2.00;;
8349;SDS011;60699;48.946;8.412;2023-07-08T10:12:20;5.67;;;2.10;;
8349;SDS011;60699;48.946;8.412;2023-07-08T10:14:48;2.80;;;2.53;;
8349;SDS011;60699;48.946;8.412;2023-07-08T10:17:17;2.33;;;2.00;;
8349;SDS011;60699;48.946;8.412;2023-07-08T10:19:45;2.40;;;2.00;;
8349;SDS011;60699;48.946;8.412;2023-07-08T10:22:17;4.03;;;2.30;;
8349;SDS011;60699;48.946;8.412;2023-07-08T10:24:55;3.73;;;1.73;;
8349;SDS011;60699;48.946;8.412;2023-07-08T10:27:27;2.23;;;2.00;;
8349;SDS011;60699;48.946;8.412;2023-07-08T10:29:58;3.83;;;1.97;;
8349;SDS011;60699;48.946;8.412;2023-07-08T10:32:33;3.90;;;3.33;;
8349;SDS011;60699;48.946;8.412;2023-07-08T10:35:04;2.97;;;2.57;;
8349;SDS011;60699;48.946;8.412;2023-07-08T10:37:38;5.47;;;2.00;;
8349;SDS011;60699;48.946;8.412;2023-07-08T10:40:25;3.23;;;2.13;;
8349;SDS011;60699;48.946;8.412;2023-07-08T10:43:10;1.70;;;1.47;;
8349;SDS011;60699;48.946;8.412;2023-07-08T10:45:41;2.40;;;2.10;;
8349;SDS011;60699;48.946;8.412;2023-07-08T10:48:16;1.80;;;1.70;;
8349;SDS011;60699;48.946;8.412;2023-07-08T10:50:54;2.93;;;2.00;;
8349;SDS011;60699;48.946;8.412;2023-07-08T10:56:07;1.63;;;1.53;;
8349;SDS011;60699;48.946;8.412;2023-07-08T11:01:23;2.70;;;2.17;;
8349;SDS011;60699;48.946;8.412;2023-07-08T11:03:56;2.00;;;1.90;;
8349;SDS011;60699;48.946;8.412;2023-07-08T11:06:27;3.10;;;2.63;;
8349;SDS011;60699;48.946;8.412;2023-07-08T11:08:55;2.63;;;2.03;;
8349;SDS011;60699;48.946;8.412;2023-07-08T11:11:27;2.57;;;2.37;;
8349;SDS011;60699;48.946;8.412;2023-07-08T11:13:58;3.13;;;2.20;;
8349;SDS011;60699;48.946;8.412;2023-07-08T11:16:28;3.20;;;2.47;;
8349;SDS011;60699;48.946;8.412;2023-07-08T11:18:58;3.70;;;2.53;;
8349;SDS011;60699;48.946;8.412;2023-07-08T11:21:29;3.40;;;2.30;;
8349;SDS011;60699;48.946;8.412;2023-07-08T11:23:58;2.50;;;2.30;;
8349;SDS011;60699;48.946;8.412;2023-07-08T11:26:29;3.90;;;2.53;;
8349;SDS011;60699;48.946;8.412;2023-07-08T11:28:57;2.80;;;2.50;;
8349;SDS011;60699;48.946;8.412;2023-07-08T11:31:25;2.90;;;2.70;;
8349;SDS011;60699;48.946;8.412;2023-07-08T11:33:54;3.63;;;2.50;;
8349;SDS011;60699;48.946;8.412;2023-07-08T11:36:22;3.37;;;2.57;;
8349;SDS011;60699;48.946;8.412;2023-07-08T11:38:50;2.30;;;2.10;;
8349;SDS011;60699;48.946;8.412;2023-07-08T11:41:18;5.73;;;2.90;;
8349;SDS011;60699;48.946;8.412;2023-07-08T11:43:47;1.87;;;1.77;;
8349;SDS011;60699;48.946;8.412;2023-07-08T11:46:16;5.50;;;2.43;;
8349;SDS011;60699;48.946;8.412;2023-07-08T11:48:45;2.33;;;2.23;;
8349;SDS011;60699;48.946;8.412;2023-07-08T11:51:16;3.20;;;3.00;;
8349;SDS011;60699;48.946;8.412;2023-07-08T11:53:47;3.10;;;2.30;;
8349;SDS011;60699;48.946;8.412;2023-07-08T11:56:21;2.07;;;1.93;;
8349;SDS011;60699;48.946;8.412;2023-07-08T11:58:57;3.10;;;2.67;;
8349;SDS011;60699;48.946;8.412;2023-07-08T12:01:26;2.80;;;2.50;;
8349;SDS011;60699;48.946;8.412;2023-07-08T12:03:55;2.50;;;2.03;;
8349;SDS011;60699;48.946;8.412;2023-07-08T12:09:25;5.60;;;2.30;;
8349;SDS011;60699;48.946;8.412;2023-07-08T12:11:53;2.80;;;2.23;;
8349;SDS011;60699;48.946;8.412;2023-07-08T12:14:21;2.13;;;1.93;;
8349;SDS011;60699;48.946;8.412;2023-07-08T12:16:49;3.63;;;2.80;;
8349;SDS011;60699;48.946;8.412;2023-07-08T12:19:17;2.47;;;2.27;;
8349;SDS011;60699;48.946;8.412;2023-07-08T12:21:45;2.97;;;2.70;;
8349;SDS011;60699;48.946;8.412;2023-07-08T12:24:12;2.17;;;1.90;;
8349;SDS011;60699;48.946;8.412;2023-07-08T12:26:41;2.93;;;2.33;;
8349;SDS011;60699;48.946;8.412;2023-07-08T12:29:10;2.50;;;2.20;;
8349;SDS011;60699;48.946;8.412;2023-07-08T12:31:38;2.83;;;2.47;;
8349;SDS011;60699;48.946;8.412;2023-07-08T12:34:07;2.47;;;2.27;;
8349;SDS011;60699;48.946;8.412;2023-07-08T12:36:37;3.23;;;3.03;;
8349;SDS011;60699;48.946;8.412;2023-07-08T12:39:04;6.87;;;2.80;;
8349;SDS011;60699;48.946;8.412;2023-07-08T12:41:32;3.60;;;2.53;;
8349;SDS011;60699;48.946;8.412;2023-07-08T12:44:01;3.83;;;2.63;;
8349;SDS011;60699;48.946;8.412;2023-07-08T12:46:29;2.77;;;2.20;;
8349;SDS011;60699;48.946;8.412;2023-07-08T12:48:56;3.60;;;2.87;;
8349;SDS011;60699;48.946;8.412;2023-07-08T12:51:24;3.17;;;2.87;;
8349;SDS011;60699;48.946;8.412;2023-07-08T12:53:51;3.53;;;2.73;;
8349;SDS011;60699;48.946;8.412;2023-07-08T12:56:19;2.70;;;2.43;;
8349;SDS011;60699;48.946;8.412;2023-07-08T12:58:48;4.00;;;2.30;;
8349;SDS011;60699;48.946;8.412;2023-07-08T13:01:18;3.83;;;2.50;;
8349;SDS011;60699;48.946;8.412;2023-07-08T13:03:47;4.80;;;2.60;;
8349;SDS011;60699;48.946;8.412;2023-07-08T13:06:16;2.80;;;2.60;;
8349;SDS011;60699;48.946;8.412;2023-07-08T13:08:43;3.10;;;2.90;;
8349;SDS011;60699;48.946;8.412;2023-07-08T13:11:11;2.80;;;2.30;;
8349;SDS011;60699;48.946;8.412;2023-07-08T13:13:40;4.03;;;2.90;;
8349;SDS011;60699;48.946;8.412;2023-07-08T13:16:10;3.10;;;2.83;;
8349;SDS011;60699;48.946;8.412;2023-07-08T13:18:39;4.30;;;2.93;;
8349;SDS011;60699;48.946;8.412;2023-07-08T13:21:07;3.33;;;3.03;;
8349;SDS011;60699;48.946;8.412;2023-07-08T13:23:35;3.37;;;3.07;;
8349;SDS011;60699;48.946;8.412;2023-07-08T13:26:11;5.83;;;3.30;;
8349;SDS011;60699;48.946;8.412;2023-07-08T13:28:39;3.10;;;2.80;;
8349;SDS011;60699;48.946;8.412;2023-07-08T13:31:13;2.90;;;2.63;;
8349;SDS011;60699;48.946;8.412;2023-07-08T13:33:45;3.50;;;2.77;;
8349;SDS011;60699;48.946;8.412;2023-07-08T13:36:13;3.90;;;2.90;;
8349;SDS011;60699;48.946;8.412;2023-07-08T13:38:41;5.30;;;3.80;;
8349;SDS011;60699;48.946;8.412;2023-07-08T13:41:08;4.63;;;3.03;;
8349;SDS011;60699;48.946;8.412;2023-07-08T13:43:38;5.23;;;3.07;;
8349;SDS011;60699;48.946;8.412;2023-07-08T13:46:06;3.47;;;3.17;;
8349;SDS011;60699;48.946;8.412;2023-07-08T13:48:36;4.00;;;3.27;;
8349;SDS011;60699;48.946;8.412;2023-07-08T13:51:06;2.73;;;2.30;;
8349;SDS011;60699;48.946;8.412;2023-07-08T13:53:41;2.97;;;2.67;;
8349;SDS011;60699;48.946;8.412;2023-07-08T13:56:11;3.40;;;2.93;;
8349;SDS011;60699;48.946;8.412;2023-07-08T13:58:41;4.47;;;2.90;;
8349;SDS011;60699;48.946;8.412;2023-07-08T14:01:09;3.73;;;3.27;;
8349;SDS011;60699;48.946;8.412;2023-07-08T14:03:38;3.07;;;2.77;;
8349;SDS011;60699;48.946;8.412;2023-07-08T14:06:10;4.60;;;2.83;;
8349;SDS011;60699;48.946;8.412;2023-07-08T14:08:38;5.17;;;3.17;;
8349;SDS011;60699;48.946;8.412;2023-07-08T14:11:05;2.53;;;2.30;;
8349;SDS011;60699;48.946;8.412;2023-07-08T14:13:33;1.83;;;1.73;;
8349;SDS011;60699;48.946;8.412;2023-07-08T14:16:00;3.33;;;2.53;;
8349;SDS011;60699;48.946;8.412;2023-07-08T14:18:28;3.13;;;2.87;;
8349;SDS011;60699;48.946;8.412;2023-07-08T14:20:55;2.87;;;2.67;;
8349;SDS011;60699;48.946;8.412;2023-07-08T14:23:24;3.00;;;2.50;;
8349;SDS011;60699;48.946;8.412;2023-07-08T14:25:51;8.60;;;3.37;;
8349;SDS011;60699;48.946;8.412;2023-07-08T14:28:20;3.60;;;2.97;;
8349;SDS011;60699;48.946;8.412;2023-07-08T14:30:47;3.00;;;2.50;;
8349;SDS011;60699;48.946;8.412;2023-07-08T14:33:14;2.60;;;2.40;;
8349;SDS011;60699;48.946;8.412;2023-07-08T14:35:41;4.23;;;3.13;;
8349;SDS011;60699;48.946;8.412;2023-07-08T14:38:09;6.03;;;2.90;;
8349;SDS011;60699;48.946;8.412;2023-07-08T14:40:39;4.43;;;2.53;;
8349;SDS011;60699;48.946;8.412;2023-07-08T14:43:10;3.30;;;3.00;;
8349;SDS011;60699;48.946;8.412;2023-07-08T14:45:38;3.83;;;2.80;;
8349;SDS011;60699;48.946;8.412;2023-07-08T14:48:07;4.43;;;2.87;;
8349;SDS011;60699;48.946;8.412;2023-07-08T14:50:35;5.50;;;3.40;;
8349;SDS011;60699;48.946;8.412;2023-07-08T14:53:02;4.83;;;3.27;;
8349;SDS011;60699;48.946;8.412;2023-07-08T14:55:29;3.77;;;2.80;;
8349;SDS011;60699;48.946;8.412;2023-07-08T14:57:57;3.40;;;2.73;;
8349;SDS011;60699;48.946;8.412;2023-07-08T15:00:25;5.97;;;4.97;;
8349;SDS011;60699;48.946;8.412;2023-07-08T15:02:52;5.53;;;2.90;;
8349;SDS011;60699;48.946;8.412;2023-07-08T15:05:20;2.57;;;2.37;;
8349;SDS011;60699;48.946;8.412;2023-07-08T15:07:48;3.07;;;2.83;;
8349;SDS011;60699;48.946;8.412;2023-07-08T15:10:15;3.47;;;3.17;;
8349;SDS011;60699;48.946;8.412;2023-07-08T15:12:42;5.33;;;2.63;;
8349;SDS011;60699;48.946;8.412;2023-07-08T15:15:15;2.90;;;2.60;;